sensor_id;sensor_type;location;lat;lon;timestamp;pressure;altitude;pressure_sealevel;temperature;humidity
16331;BME280;8275;48.206;16.340;2023-04-30T00:02:14;99316.09;;;18.82;44.29
16331;BME280;8275;48.206;16.340;2023-04-30T00:04:44;99316.78;;;18.74;44.54
16331;BME280;8275;48.206;16.340;2023-04-30T00:07:12;99315.59;;;18.67;44.36
16331;BME280;8275;48.206;16.340;2023-04-30T00:09:41;99322.66;;;18.59;44.51
16331;BME280;8275;48.206;16.340;2023-04-30T00:12:09;99323.38;;;18.51;44.46
16331;BME280;8275;48.206;16.340;2023-04-30T00:14:37;99325.19;;;18.42;44.44
16331;BME280;8275;48.206;16.340;2023-04-30T00:17:06;99332.56;;;18.33;44.29
16331;BME280;8275;48.206;16.340;2023-04-30T00:19:34;99322.19;;;18.25;44.25
16331;BME280;8275;48.206;16.340;2023-04-30T00:22:04;99322.59;;;18.18;44.08
16331;BME280;8275;48.206;16.340;2023-04-30T00:24:33;99333.25;;;18.11;43.94
16331;BME280;8275;48.206;16.340;2023-04-30T00:27:01;99342.75;;;18.05;43.93
16331;BME280;8275;48.206;16.340;2023-04-30T00:29:30;99353.72;;;17.97;44.04
16331;BME280;8275;48.206;16.340;2023-04-30T00:31:58;99350.00;;;17.88;43.94
16331;BME280;8275;48.206;16.340;2023-04-30T00:34:26;99347.31;;;17.83;44.11
16331;BME280;8275;48.206;16.340;2023-04-30T00:36:55;99338.53;;;17.76;44.14
16331;BME280;8275;48.206;16.340;2023-04-30T00:39:24;99334.50;;;17.68;44.27
16331;BME280;8275;48.206;16.340;2023-04-30T00:41:53;99346.50;;;17.64;44.47
16331;BME280;8275;48.206;16.340;2023-04-30T00:44:21;99351.31;;;17.58;44.61
16331;BME280;8275;48.206;16.340;2023-04-30T00:46:50;99351.38;;;17.53;44.69
16331;BME280;8275;48.206;16.340;2023-04-30T00:49:18;99353.06;;;17.49;44.64
16331;BME280;8275;48.206;16.340;2023-04-30T00:51:47;99343.16;;;17.43;45.01
16331;BME280;8275;48.206;16.340;2023-04-30T00:54:16;99343.53;;;17.36;45.11
16331;BME280;8275;48.206;16.340;2023-04-30T00:56:46;99355.81;;;17.30;45.07
16331;BME280;8275;48.206;16.340;2023-04-30T00:59:15;99355.88;;;17.25;45.34
16331;BME280;8275;48.206;16.340;2023-04-30T01:01:44;99363.16;;;17.21;45.38
16331;BME280;8275;48.206;16.340;2023-04-30T01:04:12;99362.38;;;17.16;45.41
16331;BME280;8275;48.206;16.340;2023-04-30T01:06:41;99370.47;;;17.12;45.18
16331;BME280;8275;48.206;16.340;2023-04-30T01:09:09;99374.66;;;17.10;45.33
16331;BME280;8275;48.206;16.340;2023-04-30T01:11:51;99367.25;;;17.05;45.27
16331;BME280;8275;48.206;16.340;2023-04-30T01:14:29;99365.88;;;17.03;45.27
16331;BME280;8275;48.206;16.340;2023-04-30T01:17:04;99370.38;;;16.99;44.96
16331;BME280;8275;48.206;16.340;2023-04-30T01:19:39;99375.38;;;16.97;44.89
16331;BME280;8275;48.206;16.340;2023-04-30T01:22:13;99372.88;;;16.95;44.85
16331;BME280;8275;48.206;16.340;2023-04-30T01:25:11;99366.81;;;16.93;45.02
16331;BME280;8275;48.206;16.340;2023-04-30T01:28:01;99372.66;;;16.92;44.97
16331;BME280;8275;48.206;16.340;2023-04-30T01:30:30;99372.38;;;16.93;44.87
16331;BME280;8275;48.206;16.340;2023-04-30T01:32:59;99377.38;;;16.91;44.99
16331;BME280;8275;48.206;16.340;2023-04-30T01:35:48;99380.44;;;16.90;44.88
16331;BME280;8275;48.206;16.340;2023-04-30T01:38:40;99388.75;;;16.90;44.96
16331;BME280;8275;48.206;16.340;2023-04-30T01:41:21;99393.16;;;16.91;44.84
16331;BME280;8275;48.206;16.340;2023-04-30T01:44:11;99384.84;;;16.91;44.93
16331;BME280;8275;48.206;16.340;2023-04-30T01:46:45;99381.25;;;16.90;44.75
16331;BME280;8275;48.206;16.340;2023-04-30T01:49:26;99377.69;;;16.90;44.80
16331;BME280;8275;48.206;16.340;2023-04-30T01:52:11;99389.84;;;16.89;44.86
16331;BME280;8275;48.206;16.340;2023-04-30T01:54:47;99376.31;;;16.87;44.87
16331;BME280;8275;48.206;16.340;2023-04-30T01:57:27;99385.19;;;16.84;44.80
16331;BME280;8275;48.206;16.340;2023-04-30T01:59:58;99385.72;;;16.86;45.00
16331;BME280;8275;48.206;16.340;2023-04-30T02:02:26;99387.38;;;16.87;44.78
16331;BME280;8275;48.206;16.340;2023-04-30T02:04:55;99384.91;;;16.85;44.90
16331;BME280;8275;48.206;16.340;2023-04-30T02:07:36;99387.44;;;16.82;44.93
16331;BME280;8275;48.206;16.340;2023-04-30T02:10:08;99393.81;;;16.82;45.11
16331;BME280;8275;48.206;16.340;2023-04-30T02:12:38;99392.97;;;16.82;45.00
16331;BME280;8275;48.206;16.340;2023-04-30T02:15:09;99402.09;;;16.82;45.22
16331;BME280;8275;48.206;16.340;2023-04-30T02:17:38;99405.41;;;16.84;45.05
16331;BME280;8275;48.206;16.340;2023-04-30T02:20:07;99417.81;;;16.87;45.01
16331;BME280;8275;48.206;16.340;2023-04-30T02:22:36;99409.53;;;16.87;45.01
16331;BME280;8275;48.206;16.340;2023-04-30T02:25:06;99411.47;;;16.87;45.09
16331;BME280;8275;48.206;16.340;2023-04-30T02:27:34;99406.75;;;16.87;45.10
16331;BME280;8275;48.206;16.340;2023-04-30T02:30:04;99410.63;;;16.86;44.96
16331;BME280;8275;48.206;16.340;2023-04-30T02:32:34;99408.38;;;16.88;44.79
16331;BME280;8275;48.206;16.340;2023-04-30T02:35:03;99410.31;;;16.88;45.07
16331;BME280;8275;48.206;16.340;2023-04-30T02:37:31;99415.84;;;16.88;44.80
16331;BME280;8275;48.206;16.340;2023-04-30T02:40:00;99418.94;;;16.86;45.03
16331;BME280;8275;48.206;16.340;2023-04-30T02:42:28;99419.25;;;16.84;44.88
16331;BME280;8275;48.206;16.340;2023-04-30T02:44:57;99418.97;;;16.81;44.98
16331;BME280;8275;48.206;16.340;2023-04-30T02:47:25;99430.88;;;16.81;45.08
16331;BME280;8275;48.206;16.340;2023-04-30T02:49:55;99428.13;;;16.81;45.15
16331;BME280;8275;48.206;16.340;2023-04-30T02:52:24;99443.88;;;16.81;44.99
16331;BME280;8275;48.206;16.340;2023-04-30T02:54:53;99436.72;;;16.80;44.91
16331;BME280;8275;48.206;16.340;2023-04-30T02:57:21;99429.25;;;16.80;45.07
16331;BME280;8275;48.206;16.340;2023-04-30T02:59:50;99432.81;;;16.81;44.92
16331;BME280;8275;48.206;16.340;2023-04-30T03:02:18;99431.41;;;16.83;44.88
16331;BME280;8275;48.206;16.340;2023-04-30T03:04:49;99431.41;;;16.83;45.14
16331;BME280;8275;48.206;16.340;2023-04-30T03:07:19;99430.31;;;16.84;44.85
16331;BME280;8275;48.206;16.340;2023-04-30T03:09:48;99431.13;;;16.85;44.87
16331;BME280;8275;48.206;16.340;2023-04-30T03:12:16;99434.69;;;16.85;44.97
16331;BME280;8275;48.206;16.340;2023-04-30T03:14:44;99437.78;;;16.84;44.87
16331;BME280;8275;48.206;16.340;2023-04-30T03:17:13;99433.91;;;16.85;44.83
16331;BME280;8275;48.206;16.340;2023-04-30T03:19:42;99431.94;;;16.85;44.92
16331;BME280;8275;48.206;16.340;2023-04-30T03:22:10;99426.41;;;16.85;44.96
16331;BME280;8275;48.206;16.340;2023-04-30T03:24:40;99434.16;;;16.83;44.90
16331;BME280;8275;48.206;16.340;2023-04-30T03:27:08;99427.00;;;16.82;44.85
16331;BME280;8275;48.206;16.340;2023-04-30T03:29:37;99438.06;;;16.82;45.00
16331;BME280;8275;48.206;16.340;2023-04-30T03:32:05;99442.47;;;16.83;44.83
16331;BME280;8275;48.206;16.340;2023-04-30T03:34:34;99445.25;;;16.83;45.11
16331;BME280;8275;48.206;16.340;2023-04-30T03:37:02;99443.31;;;16.84;44.92
16331;BME280;8275;48.206;16.340;2023-04-30T03:39:30;99451.59;;;16.84;44.99
16331;BME280;8275;48.206;16.340;2023-04-30T03:42:00;99457.97;;;16.84;44.89
16331;BME280;8275;48.206;16.340;2023-04-30T03:44:29;99452.97;;;16.87;45.00
16331;BME280;8275;48.206;16.340;2023-04-30T03:46:58;99457.38;;;16.88;44.88
16331;BME280;8275;48.206;16.340;2023-04-30T03:49:26;99452.38;;;16.90;44.77
16331;BME280;8275;48.206;16.340;2023-04-30T03:51:54;99459.88;;;16.89;44.84
16331;BME280;8275;48.206;16.340;2023-04-30T03:54:23;99453.19;;;16.90;44.88
16331;BME280;8275;48.206;16.340;2023-04-30T03:56:51;99459.56;;;16.91;44.97
16331;BME280;8275;48.206;16.340;2023-04-30T03:59:21;99459.28;;;16.92;44.83
16331;BME280;8275;48.206;16.340;2023-04-30T04:01:49;99460.63;;;16.95;44.66
16331;BME280;8275;48.206;16.340;2023-04-30T04:04:18;99463.38;;;16.95;44.66
16331;BME280;8275;48.206;16.340;2023-04-30T04:06:46;99460.34;;;16.96;44.95
16331;BME280;8275;48.206;16.340;2023-04-30T04:09:15;99466.41;;;16.98;44.87
16331;BME280;8275;48.206;16.340;2023-04-30T04:11:43;99473.28;;;17.01;44.67
16331;BME280;8275;48.206;16.340;2023-04-30T04:14:11;99472.16;;;17.02;44.70
16331;BME280;8275;48.206;16.340;2023-04-30T04:16:41;99479.34;;;17.03;44.66
16331;BME280;8275;48.206;16.340;2023-04-30T04:19:09;99489.28;;;17.04;44.46
16331;BME280;8275;48.206;16.340;2023-04-30T04:21:39;99487.88;;;17.06;44.54
16331;BME280;8275;48.206;16.340;2023-04-30T04:24:07;99499.22;;;17.10;44.54
16331;BME280;8275;48.206;16.340;2023-04-30T04:26:36;99492.28;;;17.12;44.66
16331;BME280;8275;48.206;16.340;2023-04-30T04:29:05;99493.91;;;17.13;44.57
16331;BME280;8275;48.206;16.340;2023-04-30T04:31:35;99499.38;;;17.18;44.63
16331;BME280;8275;48.206;16.340;2023-04-30T04:34:06;99499.63;;;17.22;44.48
16331;BME280;8275;48.206;16.340;2023-04-30T04:36:34;99505.09;;;17.27;44.49
16331;BME280;8275;48.206;16.340;2023-04-30T04:39:03;99501.75;;;17.30;44.38
16331;BME280;8275;48.206;16.340;2023-04-30T04:41:33;99502.81;;;17.34;44.20
16331;BME280;8275;48.206;16.340;2023-04-30T04:44:02;99505.81;;;17.37;44.15
16331;BME280;8275;48.206;16.340;2023-04-30T04:46:31;99516.53;;;17.44;44.17
16331;BME280;8275;48.206;16.340;2023-04-30T04:48:59;99512.66;;;17.45;43.99
16331;BME280;8275;48.206;16.340;2023-04-30T04:51:29;99517.59;;;17.48;44.11
16331;BME280;8275;48.206;16.340;2023-04-30T04:53:58;99519.81;;;17.51;43.90
16331;BME280;8275;48.206;16.340;2023-04-30T04:56:26;99522.00;;;17.54;43.87
16331;BME280;8275;48.206;16.340;2023-04-30T04:58:55;99526.66;;;17.59;44.08
16331;BME280;8275;48.206;16.340;2023-04-30T05:01:23;99532.09;;;17.64;44.03
16331;BME280;8275;48.206;16.340;2023-04-30T05:03:52;99531.78;;;17.70;43.78
16331;BME280;8275;48.206;16.340;2023-04-30T05:06:20;99527.81;;;17.76;43.57
16331;BME280;8275;48.206;16.340;2023-04-30T05:08:50;99529.69;;;17.81;43.38
16331;BME280;8275;48.206;16.340;2023-04-30T05:11:19;99532.97;;;17.83;43.42
16331;BME280;8275;48.206;16.340;2023-04-30T05:13:48;99536.00;;;17.86;43.42
16331;BME280;8275;48.206;16.340;2023-04-30T05:16:16;99542.28;;;17.92;43.31
16331;BME280;8275;48.206;16.340;2023-04-30T05:18:45;99553.00;;;17.98;43.07
16331;BME280;8275;48.206;16.340;2023-04-30T05:21:13;99548.44;;;18.07;43.08
16331;BME280;8275;48.206;16.340;2023-04-30T05:23:43;99548.88;;;18.14;42.67
16331;BME280;8275;48.206;16.340;2023-04-30T05:26:13;99549.06;;;18.23;42.55
16331;BME280;8275;48.206;16.340;2023-04-30T05:28:41;99552.50;;;18.34;42.60
16331;BME280;8275;48.206;16.340;2023-04-30T05:31:10;99549.81;;;18.47;42.27
16331;BME280;8275;48.206;16.340;2023-04-30T05:33:38;99560.78;;;18.57;42.14
16331;BME280;8275;48.206;16.340;2023-04-30T05:36:07;99545.59;;;18.68;42.27
16331;BME280;8275;48.206;16.340;2023-04-30T05:38:35;99552.63;;;18.79;42.00
16331;BME280;8275;48.206;16.340;2023-04-30T05:41:04;99558.63;;;18.86;41.76
16331;BME280;8275;48.206;16.340;2023-04-30T05:43:33;99558.53;;;18.91;41.75
16331;BME280;8275;48.206;16.340;2023-04-30T05:46:02;99558.44;;;18.97;41.54
16331;BME280;8275;48.206;16.340;2023-04-30T05:48:30;99564.72;;;19.02;41.22
16331;BME280;8275;48.206;16.340;2023-04-30T05:50:59;99560.81;;;19.03;41.22
16331;BME280;8275;48.206;16.340;2023-04-30T05:53:27;99570.50;;;19.06;41.03
16331;BME280;8275;48.206;16.340;2023-04-30T05:55:55;99574.13;;;19.06;41.00
16331;BME280;8275;48.206;16.340;2023-04-30T05:58:24;99572.06;;;19.12;40.71
16331;BME280;8275;48.206;16.340;2023-04-30T06:00:54;99582.25;;;19.16;40.64
16331;BME280;8275;48.206;16.340;2023-04-30T06:03:22;99574.34;;;19.23;40.29
16331;BME280;8275;48.206;16.340;2023-04-30T06:05:51;99571.69;;;19.32;40.29
16331;BME280;8275;48.206;16.340;2023-04-30T06:08:19;99575.03;;;19.47;39.78
16331;BME280;8275;48.206;16.340;2023-04-30T06:10:48;99574.53;;;19.59;39.44
16331;BME280;8275;48.206;16.340;2023-04-30T06:13:17;99566.06;;;19.64;38.85
16331;BME280;8275;48.206;16.340;2023-04-30T06:15:46;99575.25;;;19.65;38.54
16331;BME280;8275;48.206;16.340;2023-04-30T06:18:16;99574.53;;;19.59;38.45
16331;BME280;8275;48.206;16.340;2023-04-30T06:20:44;99579.03;;;19.55;38.32
16331;BME280;8275;48.206;16.340;2023-04-30T06:23:13;99567.41;;;19.53;38.01
16331;BME280;8275;48.206;16.340;2023-04-30T06:25:41;99580.19;;;19.54;37.83
16331;BME280;8275;48.206;16.340;2023-04-30T06:28:09;99571.03;;;19.53;37.60
16331;BME280;8275;48.206;16.340;2023-04-30T06:30:38;99577.69;;;19.52;37.42
16331;BME280;8275;48.206;16.340;2023-04-30T06:33:07;99573.72;;;19.58;37.73
16331;BME280;8275;48.206;16.340;2023-04-30T06:35:37;99570.84;;;19.64;37.17
16331;BME280;8275;48.206;16.340;2023-04-30T06:38:05;99578.25;;;19.68;37.10
16331;BME280;8275;48.206;16.340;2023-04-30T06:40:34;99570.09;;;19.72;36.53
16331;BME280;8275;48.206;16.340;2023-04-30T06:43:02;99576.69;;;19.76;36.79
16331;BME280;8275;48.206;16.340;2023-04-30T06:45:31;99576.06;;;19.79;36.78
16331;BME280;8275;48.206;16.340;2023-04-30T06:47:59;99580.72;;;19.83;36.44
16331;BME280;8275;48.206;16.340;2023-04-30T06:50:28;99570.41;;;19.84;36.38
16331;BME280;8275;48.206;16.340;2023-04-30T06:52:57;99582.25;;;19.89;36.33
16331;BME280;8275;48.206;16.340;2023-04-30T06:55:26;99571.66;;;19.91;36.16
16331;BME280;8275;48.206;16.340;2023-04-30T06:57:55;99575.63;;;19.99;36.69
16331;BME280;8275;48.206;16.340;2023-04-30T07:00:24;99577.72;;;20.07;36.52
16331;BME280;8275;48.206;16.340;2023-04-30T07:02:52;99576.44;;;20.13;36.19
16331;BME280;8275;48.206;16.340;2023-04-30T07:05:21;99584.63;;;20.23;36.13
16331;BME280;8275;48.206;16.340;2023-04-30T07:07:49;99576.66;;;20.30;36.19
16331;BME280;8275;48.206;16.340;2023-04-30T07:10:20;99581.19;;;20.40;35.92
16331;BME280;8275;48.206;16.340;2023-04-30T07:12:48;99577.31;;;20.49;35.47
16331;BME280;8275;48.206;16.340;2023-04-30T07:15:16;99576.19;;;20.50;35.04
16331;BME280;8275;48.206;16.340;2023-04-30T07:17:45;99578.88;;;20.55;34.68
16331;BME280;8275;48.206;16.340;2023-04-30T07:20:13;99572.97;;;20.57;35.12
16331;BME280;8275;48.206;16.340;2023-04-30T07:22:42;99567.63;;;20.60;34.54
16331;BME280;8275;48.206;16.340;2023-04-30T07:25:12;99568.19;;;20.71;34.98
16331;BME280;8275;48.206;16.340;2023-04-30T07:27:42;99574.50;;;20.85;35.08
16331;BME280;8275;48.206;16.340;2023-04-30T07:30:11;99569.84;;;20.94;34.54
16331;BME280;8275;48.206;16.340;2023-04-30T07:32:40;99576.91;;;21.00;34.70
16331;BME280;8275;48.206;16.340;2023-04-30T07:35:09;99574.53;;;21.07;34.20
16331;BME280;8275;48.206;16.340;2023-04-30T07:37:37;99570.34;;;21.18;34.37
16331;BME280;8275;48.206;16.340;2023-04-30T07:40:09;99568.28;;;21.32;34.36
16331;BME280;8275;48.206;16.340;2023-04-30T07:42:44;99576.75;;;21.49;34.37
16331;BME280;8275;48.206;16.340;2023-04-30T07:45:13;99574.84;;;21.67;34.38
16331;BME280;8275;48.206;16.340;2023-04-30T07:47:41;99578.84;;;21.83;33.81
16331;BME280;8275;48.206;16.340;2023-04-30T07:50:10;99579.09;;;21.95;32.90
16331;BME280;8275;48.206;16.340;2023-04-30T07:52:41;99578.13;;;22.08;32.76
16331;BME280;8275;48.206;16.340;2023-04-30T07:55:09;99582.44;;;22.23;32.80
16331;BME280;8275;48.206;16.340;2023-04-30T07:57:38;99585.09;;;22.36;32.63
16331;BME280;8275;48.206;16.340;2023-04-30T08:00:08;99582.78;;;22.47;32.51
16331;BME280;8275;48.206;16.340;2023-04-30T08:02:37;99585.94;;;22.54;31.83
16331;BME280;8275;48.206;16.340;2023-04-30T08:05:06;99594.50;;;22.58;31.81
16331;BME280;8275;48.206;16.340;2023-04-30T08:07:35;99586.59;;;22.60;31.37
16331;BME280;8275;48.206;16.340;2023-04-30T08:10:05;99586.00;;;22.63;31.11
16331;BME280;8275;48.206;16.340;2023-04-30T08:12:35;99600.09;;;22.66;31.24
16331;BME280;8275;48.206;16.340;2023-04-30T08:15:07;99590.44;;;22.72;30.95
16331;BME280;8275;48.206;16.340;2023-04-30T08:17:36;99599.78;;;22.85;30.86
16331;BME280;8275;48.206;16.340;2023-04-30T08:20:06;99591.56;;;22.97;30.66
16331;BME280;8275;48.206;16.340;2023-04-30T08:22:35;99596.31;;;23.14;30.82
16331;BME280;8275;48.206;16.340;2023-04-30T08:25:05;99595.31;;;23.35;30.38
16331;BME280;8275;48.206;16.340;2023-04-30T08:27:33;99604.16;;;23.46;30.09
16331;BME280;8275;48.206;16.340;2023-04-30T08:30:02;99599.84;;;23.48;30.13
16331;BME280;8275;48.206;16.340;2023-04-30T08:32:33;99595.56;;;23.51;29.62
16331;BME280;8275;48.206;16.340;2023-04-30T08:35:03;99599.19;;;23.51;29.38
16331;BME280;8275;48.206;16.340;2023-04-30T08:37:32;99604.16;;;23.46;29.44
16331;BME280;8275;48.206;16.340;2023-04-30T08:40:01;99606.16;;;23.37;29.24
16331;BME280;8275;48.206;16.340;2023-04-30T08:42:31;99611.91;;;23.32;29.77
16331;BME280;8275;48.206;16.340;2023-04-30T08:45:03;99604.81;;;23.26;29.24
16331;BME280;8275;48.206;16.340;2023-04-30T08:47:34;99610.78;;;23.16;29.36
16331;BME280;8275;48.206;16.340;2023-04-30T08:50:03;99616.19;;;23.12;29.55
16331;BME280;8275;48.206;16.340;2023-04-30T08:52:34;99610.75;;;23.07;29.59
16331;BME280;8275;48.206;16.340;2023-04-30T08:55:07;99615.22;;;22.99;29.62
16331;BME280;8275;48.206;16.340;2023-04-30T08:57:37;99620.34;;;22.97;29.65
16331;BME280;8275;48.206;16.340;2023-04-30T09:00:07;99625.41;;;22.95;29.67
16331;BME280;8275;48.206;16.340;2023-04-30T09:02:40;99619.66;;;22.92;29.62
16331;BME280;8275;48.206;16.340;2023-04-30T09:05:11;99632.50;;;22.93;29.83
16331;BME280;8275;48.206;16.340;2023-04-30T09:07:42;99621.81;;;22.95;29.75
16331;BME280;8275;48.206;16.340;2023-04-30T09:10:32;99628.38;;;22.99;30.02
16331;BME280;8275;48.206;16.340;2023-04-30T09:13:03;99622.78;;;23.08;29.80
16331;BME280;8275;48.206;16.340;2023-04-30T09:15:33;99618.69;;;23.14;29.53
16331;BME280;8275;48.206;16.340;2023-04-30T09:18:11;99623.28;;;23.18;29.39
16331;BME280;8275;48.206;16.340;2023-04-30T09:20:55;99622.94;;;23.20;29.38
16331;BME280;8275;48.206;16.340;2023-04-30T09:23:24;99619.47;;;23.31;29.14
16331;BME280;8275;48.206;16.340;2023-04-30T09:25:53;99615.03;;;23.39;29.07
16331;BME280;8275;48.206;16.340;2023-04-30T09:28:22;99622.91;;;23.45;29.04
16331;BME280;8275;48.206;16.340;2023-04-30T09:30:56;99618.59;;;23.56;29.08
16331;BME280;8275;48.206;16.340;2023-04-30T09:33:26;99612.63;;;23.75;28.99
16331;BME280;8275;48.206;16.340;2023-04-30T09:35:56;99613.03;;;23.94;29.01
16331;BME280;8275;48.206;16.340;2023-04-30T09:38:27;99604.09;;;24.09;28.69
16331;BME280;8275;48.206;16.340;2023-04-30T09:40:57;99608.16;;;24.20;28.60
16331;BME280;8275;48.206;16.340;2023-04-30T09:43:26;99601.50;;;24.33;28.59
16331;BME280;8275;48.206;16.340;2023-04-30T09:45:57;99596.50;;;24.39;28.34
16331;BME280;8275;48.206;16.340;2023-04-30T09:48:28;99608.81;;;24.47;28.20
16331;BME280;8275;48.206;16.340;2023-04-30T09:50:56;99597.91;;;24.54;28.20
16331;BME280;8275;48.206;16.340;2023-04-30T09:53:25;99599.47;;;24.63;28.14
16331;BME280;8275;48.206;16.340;2023-04-30T09:55:54;99599.41;;;24.72;28.05
16331;BME280;8275;48.206;16.340;2023-04-30T09:58:27;99594.22;;;24.82;27.88
16331;BME280;8275;48.206;16.340;2023-04-30T10:00:57;99581.78;;;24.92;27.72
16331;BME280;8275;48.206;16.340;2023-04-30T10:03:29;99586.16;;;25.01;27.84
16331;BME280;8275;48.206;16.340;2023-04-30T10:05:58;99587.72;;;25.11;27.73
16331;BME280;8275;48.206;16.340;2023-04-30T10:08:30;99581.81;;;25.25;27.58
16331;BME280;8275;48.206;16.340;2023-04-30T10:11:03;99584.97;;;25.35;27.06
16331;BME280;8275;48.206;16.340;2023-04-30T10:13:40;99581.09;;;25.48;27.00
16331;BME280;8275;48.206;16.340;2023-04-30T10:16:19;99574.91;;;25.55;26.42
16331;BME280;8275;48.206;16.340;2023-04-30T10:18:53;99570.44;;;25.54;26.26
16331;BME280;8275;48.206;16.340;2023-04-30T10:21:26;99564.38;;;25.52;25.96
16331;BME280;8275;48.206;16.340;2023-04-30T10:23:55;99568.09;;;25.44;26.55
16331;BME280;8275;48.206;16.340;2023-04-30T10:26:25;99564.88;;;25.33;26.43
16331;BME280;8275;48.206;16.340;2023-04-30T10:28:56;99557.38;;;25.25;26.21
16331;BME280;8275;48.206;16.340;2023-04-30T10:31:27;99554.06;;;25.11;26.37
16331;BME280;8275;48.206;16.340;2023-04-30T10:34:08;99553.06;;;24.95;26.28
16331;BME280;8275;48.206;16.340;2023-04-30T10:36:42;99554.06;;;24.78;26.69
16331;BME280;8275;48.206;16.340;2023-04-30T10:39:13;99543.72;;;24.70;26.68
16331;BME280;8275;48.206;16.340;2023-04-30T10:41:44;99544.03;;;24.69;26.59
16331;BME280;8275;48.206;16.340;2023-04-30T10:44:20;99536.94;;;24.71;26.61
16331;BME280;8275;48.206;16.340;2023-04-30T10:46:49;99539.53;;;24.97;26.89
16331;BME280;8275;48.206;16.340;2023-04-30T10:49:27;99532.88;;;25.34;26.77
16331;BME280;8275;48.206;16.340;2023-04-30T10:51:58;99531.78;;;25.71;26.47
16331;BME280;8275;48.206;16.340;2023-04-30T10:54:30;99528.03;;;26.16;26.19
16331;BME280;8275;48.206;16.340;2023-04-30T10:57:12;99522.16;;;26.45;25.53
16331;BME280;8275;48.206;16.340;2023-04-30T10:59:52;99518.66;;;26.76;24.96
16331;BME280;8275;48.206;16.340;2023-04-30T11:02:21;99519.03;;;27.02;24.79
16331;BME280;8275;48.206;16.340;2023-04-30T11:05:18;99517.81;;;27.03;24.46
16331;BME280;8275;48.206;16.340;2023-04-30T11:07:48;99525.50;;;26.90;24.13
16331;BME280;8275;48.206;16.340;2023-04-30T11:10:20;99522.22;;;26.61;24.37
16331;BME280;8275;48.206;16.340;2023-04-30T11:12:51;99516.09;;;26.31;24.31
16331;BME280;8275;48.206;16.340;2023-04-30T11:15:23;99517.50;;;26.01;24.98
16331;BME280;8275;48.206;16.340;2023-04-30T11:17:56;99522.06;;;25.69;24.65
16331;BME280;8275;48.206;16.340;2023-04-30T11:20:27;99518.97;;;25.38;25.17
16331;BME280;8275;48.206;16.340;2023-04-30T11:23:12;99514.81;;;25.11;25.96
16331;BME280;8275;48.206;16.340;2023-04-30T11:25:54;99527.50;;;24.96;26.11
16331;BME280;8275;48.206;16.340;2023-04-30T11:28:25;99530.59;;;24.83;26.14
16331;BME280;8275;48.206;16.340;2023-04-30T11:30:55;99522.09;;;24.71;26.45
16331;BME280;8275;48.206;16.340;2023-04-30T11:33:25;99528.00;;;24.57;26.34
16331;BME280;8275;48.206;16.340;2023-04-30T11:35:57;99528.81;;;24.37;26.50
16331;BME280;8275;48.206;16.340;2023-04-30T11:38:29;99526.97;;;24.20;26.77
16331;BME280;8275;48.206;16.340;2023-04-30T11:40:57;99525.72;;;24.09;27.10
16331;BME280;8275;48.206;16.340;2023-04-30T11:43:28;99531.84;;;24.03;27.20
16331;BME280;8275;48.206;16.340;2023-04-30T11:46:06;99533.88;;;23.94;27.17
16331;BME280;8275;48.206;16.340;2023-04-30T11:48:36;99530.41;;;23.88;27.54
16331;BME280;8275;48.206;16.340;2023-04-30T11:51:14;99530.41;;;23.88;27.31
16331;BME280;8275;48.206;16.340;2023-04-30T11:53:44;99527.91;;;23.95;27.33
16331;BME280;8275;48.206;16.340;2023-04-30T11:56:13;99524.56;;;24.10;27.25
16331;BME280;8275;48.206;16.340;2023-04-30T11:58:41;99528.06;;;24.28;27.31
16331;BME280;8275;48.206;16.340;2023-04-30T12:01:10;99529.78;;;24.41;26.80
16331;BME280;8275;48.206;16.340;2023-04-30T12:03:42;99529.66;;;24.79;27.03
16331;BME280;8275;48.206;16.340;2023-04-30T12:06:21;99512.78;;;25.32;26.97
16331;BME280;8275;48.206;16.340;2023-04-30T12:08:52;99511.41;;;25.74;26.60
16331;BME280;8275;48.206;16.340;2023-04-30T12:11:22;99515.75;;;25.96;25.98
16331;BME280;8275;48.206;16.340;2023-04-30T12:13:53;99515.16;;;25.91;25.33
16331;BME280;8275;48.206;16.340;2023-04-30T12:16:23;99518.22;;;25.73;25.18
16331;BME280;8275;48.206;16.340;2023-04-30T12:18:52;99516.56;;;25.60;25.62
16331;BME280;8275;48.206;16.340;2023-04-30T12:21:22;99518.19;;;25.49;25.33
16331;BME280;8275;48.206;16.340;2023-04-30T12:23:51;99517.66;;;25.35;25.08
16331;BME280;8275;48.206;16.340;2023-04-30T12:26:20;99516.25;;;25.29;25.17
16331;BME280;8275;48.206;16.340;2023-04-30T12:28:51;99500.22;;;25.62;25.27
16331;BME280;8275;48.206;16.340;2023-04-30T12:31:20;99496.72;;;26.41;24.63
16331;BME280;8275;48.206;16.340;2023-04-30T12:33:54;99492.53;;;27.46;25.11
16331;BME280;8275;48.206;16.340;2023-04-30T12:36:31;99482.38;;;28.42;23.58
16331;BME280;8275;48.206;16.340;2023-04-30T12:39:06;99480.44;;;29.23;23.02
16331;BME280;8275;48.206;16.340;2023-04-30T12:41:43;99472.34;;;29.67;22.68
16331;BME280;8275;48.206;16.340;2023-04-30T12:44:16;99488.06;;;29.68;21.43
16331;BME280;8275;48.206;16.340;2023-04-30T12:46:45;99481.13;;;29.39;21.48
16331;BME280;8275;48.206;16.340;2023-04-30T12:49:25;99479.00;;;28.91;21.92
16331;BME280;8275;48.206;16.340;2023-04-30T12:52:03;99492.44;;;28.43;22.36
16331;BME280;8275;48.206;16.340;2023-04-30T12:54:36;99488.50;;;27.94;22.38
16331;BME280;8275;48.206;16.340;2023-04-30T12:57:07;99485.19;;;27.42;22.63
16331;BME280;8275;48.206;16.340;2023-04-30T12:59:37;99479.09;;;26.96;23.68
16331;BME280;8275;48.206;16.340;2023-04-30T13:02:08;99494.72;;;26.54;23.77
16331;BME280;8275;48.206;16.340;2023-04-30T13:04:37;99487.09;;;26.15;24.10
16331;BME280;8275;48.206;16.340;2023-04-30T13:07:08;99484.41;;;25.82;24.67
16331;BME280;8275;48.206;16.340;2023-04-30T13:09:37;99483.59;;;25.57;25.11
16331;BME280;8275;48.206;16.340;2023-04-30T13:12:06;99489.28;;;25.37;25.44
16331;BME280;8275;48.206;16.340;2023-04-30T13:14:34;99483.44;;;25.30;25.50
16331;BME280;8275;48.206;16.340;2023-04-30T13:17:03;99481.47;;;25.30;25.69
16331;BME280;8275;48.206;16.340;2023-04-30T13:19:33;99478.88;;;25.37;25.61